sensor_id;sensor_type;location;lat;lon;timestamp;pressure;altitude;pressure_sealevel;temperature;humidity
25869;BME280;13688;53.154;18.136;2022-12-17T00:02:45;101376.47;;;-6.73;100.00
25869;BME280;13688;53.154;18.136;2022-12-17T00:08:32;101378.22;;;-6.70;100.00
25869;BME280;13688;53.154;18.136;2022-12-17T00:14:13;101379.96;;;-6.66;100.00
25869;BME280;13688;53.154;18.136;2022-12-17T00:19:52;101384.35;;;-6.62;100.00
25869;BME280;13688;53.154;18.136;2022-12-17T00:25:32;101388.70;;;-6.58;100.00
25869;BME280;13688;53.154;18.136;2022-12-17T00:31:12;101395.69;;;-6.60;100.00
25869;BME280;13688;53.154;18.136;2022-12-17T00:36:52;101399.17;;;-6.58;100.00
25869;BME280;13688;53.154;18.136;2022-12-17T00:42:32;101405.30;;;-6.54;100.00
25869;BME280;13688;53.154;18.136;2022-12-17T00:48:12;101395.71;;;-6.54;100.00
25869;BME280;13688;53.154;18.136;2022-12-17T00:53:52;101401.81;;;-6.53;100.00
25869;BME280;13688;53.154;18.136;2022-12-17T00:59:33;101404.46;;;-6.46;100.00
25869;BME280;13688;53.154;18.136;2022-12-17T01:05:13;101408.81;;;-6.42;100.00
25869;BME280;13688;53.154;18.136;2022-12-17T01:11:00;101413.20;;;-6.36;100.00
25869;BME280;13688;53.154;18.136;2022-12-17T01:16:41;101431.52;;;-6.30;100.00
25869;BME280;13688;53.154;18.136;2022-12-17T01:22:21;101429.80;;;-6.26;100.00
25869;BME280;13688;53.154;18.136;2022-12-17T01:28:03;101439.39;;;-6.24;100.00
25869;BME280;13688;53.154;18.136;2022-12-17T01:33:43;101441.13;;;-6.20;100.00
25869;BME280;13688;53.154;18.136;2022-12-17T01:39:23;101444.65;;;-6.13;100.00
25869;BME280;13688;53.154;18.136;2022-12-17T01:45:05;101453.37;;;-6.08;100.00
25869;BME280;13688;53.154;18.136;2022-12-17T01:50:51;101449.91;;;-6.06;100.00
25869;BME280;13688;53.154;18.136;2022-12-17T01:56:32;101453.39;;;-6.00;100.00
25869;BME280;13688;53.154;18.136;2022-12-17T02:02:15;101447.30;;;-5.96;100.00
25869;BME280;13688;53.154;18.136;2022-12-17T02:08:04;101440.27;;;-5.90;100.00
25869;BME280;13688;53.154;18.136;2022-12-17T02:13:56;101437.68;;;-5.87;100.00
25869;BME280;13688;53.154;18.136;2022-12-17T02:25:44;101443.80;;;-5.79;100.00
25869;BME280;13688;53.154;18.136;2022-12-17T02:31:25;101437.67;;;-5.71;100.00
25869;BME280;13688;53.154;18.136;2022-12-17T02:37:06;101435.06;;;-5.65;100.00
25869;BME280;13688;53.154;18.136;2022-12-17T02:42:49;101442.91;;;-5.61;100.00
25869;BME280;13688;53.154;18.136;2022-12-17T02:48:29;101444.66;;;-5.61;100.00
25869;BME280;13688;53.154;18.136;2022-12-17T02:54:10;101454.27;;;-5.54;100.00
25869;BME280;13688;53.154;18.136;2022-12-17T02:59:50;101456.90;;;-5.48;100.00
25869;BME280;13688;53.154;18.136;2022-12-17T03:05:30;101456.00;;;-5.41;100.00
25869;BME280;13688;53.154;18.136;2022-12-17T03:11:10;101459.51;;;-5.37;100.00
25869;BME280;13688;53.154;18.136;2022-12-17T03:16:51;101462.98;;;-5.34;100.00
25869;BME280;13688;53.154;18.136;2022-12-17T03:22:31;101453.38;;;-5.32;100.00
25869;BME280;13688;53.154;18.136;2022-12-17T03:28:12;101458.64;;;-5.30;100.00
25869;BME280;13688;53.154;18.136;2022-12-17T03:33:52;101461.23;;;-5.24;100.00
25869;BME280;13688;53.154;18.136;2022-12-17T03:39:32;101465.61;;;-5.20;100.00
25869;BME280;13688;53.154;18.136;2022-12-17T03:45:13;101470.84;;;-5.17;100.00
25869;BME280;13688;53.154;18.136;2022-12-17T03:50:54;101474.32;;;-5.13;100.00
25869;BME280;13688;53.154;18.136;2022-12-17T03:56:35;101465.58;;;-5.12;100.00
25869;BME280;13688;53.154;18.136;2022-12-17T04:02:17;101470.82;;;-5.12;100.00
25869;BME280;13688;53.154;18.136;2022-12-17T04:07:57;101470.82;;;-5.12;100.00
25869;BME280;13688;53.154;18.136;2022-12-17T04:13:37;101488.33;;;-5.17;100.00
25869;BME280;13688;53.154;18.136;2022-12-17T04:19:17;101486.56;;;-5.15;100.00
25869;BME280;13688;53.154;18.136;2022-12-17T04:24:57;101493.56;;;-5.10;100.00
25869;BME280;13688;53.154;18.136;2022-12-17T04:30:38;101494.42;;;-5.06;100.00
25869;BME280;13688;53.154;18.136;2022-12-17T04:36:19;101487.44;;;-5.07;100.00
25869;BME280;13688;53.154;18.136;2022-12-17T04:41:59;101483.07;;;-5.08;100.00
25869;BME280;13688;53.154;18.136;2022-12-17T04:47:39;101493.55;;;-5.05;100.00
25869;BME280;13688;53.154;18.136;2022-12-17T04:53:19;101501.41;;;-4.99;100.00
25869;BME280;13688;53.154;18.136;2022-12-17T04:58:53;101517.16;;;-5.01;100.00
25869;BME280;13688;53.154;18.136;2022-12-17T05:04:32;101520.65;;;-5.00;100.00
25869;BME280;13688;53.154;18.136;2022-12-17T05:10:12;101532.88;;;-4.99;100.00
25869;BME280;13688;53.154;18.136;2022-12-17T05:15:56;101546.84;;;-4.94;100.00
25869;BME280;13688;53.154;18.136;2022-12-17T05:21:36;101548.61;;;-4.92;100.00
25869;BME280;13688;53.154;18.136;2022-12-17T05:27:16;101552.10;;;-4.90;100.00
25869;BME280;13688;53.154;18.136;2022-12-17T05:33:01;101559.95;;;-4.85;100.00
25869;BME280;13688;53.154;18.136;2022-12-17T05:38:42;101568.69;;;-4.83;100.00
25869;BME280;13688;53.154;18.136;2022-12-17T05:44:23;101576.55;;;-4.77;100.00
25869;BME280;13688;53.154;18.136;2022-12-17T05:50:03;101587.94;;;-4.72;100.00
25869;BME280;13688;53.154;18.136;2022-12-17T05:55:46;101580.92;;;-4.68;100.00
25869;BME280;13688;53.154;18.136;2022-12-17T06:01:25;101589.67;;;-4.63;100.00
25869;BME280;13688;53.154;18.136;2022-12-17T06:07:06;101604.52;;;-4.56;100.00
25869;BME280;13688;53.154;18.136;2022-12-17T06:12:55;101601.02;;;-4.52;100.00
25869;BME280;13688;53.154;18.136;2022-12-17T06:18:35;101607.14;;;-4.50;100.00
25869;BME280;13688;53.154;18.136;2022-12-17T06:24:16;101613.27;;;-4.51;100.00
25869;BME280;13688;53.154;18.136;2022-12-17T06:29:56;101611.52;;;-4.52;100.00
25869;BME280;13688;53.154;18.136;2022-12-17T06:35:36;101634.25;;;-4.49;100.00
25869;BME280;13688;53.154;18.136;2022-12-17T06:41:16;101626.37;;;-4.48;100.00
25869;BME280;13688;53.154;18.136;2022-12-17T06:46:56;101640.37;;;-4.49;100.00
25869;BME280;13688;53.154;18.136;2022-12-17T06:52:37;101642.11;;;-4.46;100.00
25869;BME280;13688;53.154;18.136;2022-12-17T06:58:10;101655.23;;;-4.46;100.00
25869;BME280;13688;53.154;18.136;2022-12-17T07:03:51;101661.36;;;-4.46;100.00
25869;BME280;13688;53.154;18.136;2022-12-17T07:09:30;101665.75;;;-4.58;100.00
25869;BME280;13688;53.154;18.136;2022-12-17T07:15:11;101680.64;;;-4.73;100.00
25869;BME280;13688;53.154;18.136;2022-12-17T07:20:53;101677.14;;;-4.82;100.00
25869;BME280;13688;53.154;18.136;2022-12-17T07:26:33;101682.34;;;-4.93;100.00
25869;BME280;13688;53.154;18.136;2022-12-17T07:32:15;101689.33;;;-5.07;100.00
25869;BME280;13688;53.154;18.136;2022-12-17T07:38:01;101691.95;;;-5.07;100.00
25869;BME280;13688;53.154;18.136;2022-12-17T07:43:44;101707.69;;;-5.04;100.00
25869;BME280;13688;53.154;18.136;2022-12-17T07:49:25;101721.70;;;-4.98;100.00
25869;BME280;13688;53.154;18.136;2022-12-17T07:55:08;101729.59;;;-4.90;100.00
25869;BME280;13688;53.154;18.136;2022-12-17T08:00:49;101725.22;;;-4.79;100.00
25869;BME280;13688;53.154;18.136;2022-12-17T08:06:35;101746.21;;;-4.64;100.00
25869;BME280;13688;53.154;18.136;2022-12-17T08:12:19;101748.84;;;-4.56;100.00
25869;BME280;13688;53.154;18.136;2022-12-17T08:18:02;101749.73;;;-4.46;100.00
25869;BME280;13688;53.154;18.136;2022-12-17T08:23:43;101760.23;;;-4.36;100.00
25869;BME280;13688;53.154;18.136;2022-12-17T08:29:23;101769.87;;;-4.30;100.00
25869;BME280;13688;53.154;18.136;2022-12-17T08:35:06;101774.24;;;-4.29;100.00
25869;BME280;13688;53.154;18.136;2022-12-17T08:40:49;101770.75;;;-4.23;100.00
25869;BME280;13688;53.154;18.136;2022-12-17T08:46:34;101778.61;;;-4.19;100.00
25869;BME280;13688;53.154;18.136;2022-12-17T08:52:15;101804.86;;;-4.16;100.00
25869;BME280;13688;53.154;18.136;2022-12-17T08:57:59;101801.39;;;-4.13;100.00
25869;BME280;13688;53.154;18.136;2022-12-17T09:03:42;101811.00;;;-4.20;100.00
25869;BME280;13688;53.154;18.136;2022-12-17T09:09:24;101816.27;;;-4.24;99.21
25869;BME280;13688;53.154;18.136;2022-12-17T09:15:06;101805.75;;;-4.18;98.32
25869;BME280;13688;53.154;18.136;2022-12-17T09:20:52;101810.12;;;-4.26;97.38
25869;BME280;13688;53.154;18.136;2022-12-17T09:26:34;101818.01;;;-4.33;96.87
25869;BME280;13688;53.154;18.136;2022-12-17T09:32:16;101825.00;;;-4.28;96.42
25869;BME280;13688;53.154;18.136;2022-12-17T09:38:00;101832.89;;;-4.33;95.75
25869;BME280;13688;53.154;18.136;2022-12-17T09:47:41;101838.15;;;-4.24;95.03
25869;BME280;13688;53.154;18.136;2022-12-17T09:53:49;101845.12;;;-4.29;94.02
25869;BME280;13688;53.154;18.136;2022-12-17T09:59:33;101842.52;;;-4.20;93.53
25869;BME280;13688;53.154;18.136;2022-12-17T10:05:26;101845.16;;;-4.14;93.00
25869;BME280;13688;53.154;18.136;2022-12-17T10:11:20;101852.16;;;-4.11;92.50
25869;BME280;13688;53.154;18.136;2022-12-17T10:17:04;101847.78;;;-4.01;92.16
25869;BME280;13688;53.154;18.136;2022-12-17T10:23:00;101860.91;;;-3.80;91.58
25869;BME280;13688;53.154;18.136;2022-12-17T10:28:42;101866.17;;;-3.92;91.29
25869;BME280;13688;53.154;18.136;2022-12-17T10:34:25;101863.55;;;-3.83;90.99
25869;BME280;13688;53.154;18.136;2022-12-17T10:40:18;101860.02;;;-3.70;90.77
25869;BME280;13688;53.154;18.136;2022-12-17T10:46:03;101867.02;;;-3.67;90.42
25869;BME280;13688;53.154;18.136;2022-12-17T10:51:45;101874.03;;;-3.69;90.11
25869;BME280;13688;53.154;18.136;2022-12-17T10:57:33;101881.05;;;-3.73;89.91
25869;BME280;13688;53.154;18.136;2022-12-17T11:09:50;101873.16;;;-3.70;89.75
25869;BME280;13688;53.154;18.136;2022-12-17T11:15:35;101880.17;;;-3.70;90.02
25869;BME280;13688;53.154;18.136;2022-12-17T11:21:28;101874.03;;;-3.68;90.03
25869;BME280;13688;53.154;18.136;2022-12-17T11:27:18;101881.89;;;-3.42;90.64
25869;BME280;13688;53.154;18.136;2022-12-17T11:33:08;101885.38;;;-3.38;90.42
25869;BME280;13688;53.154;18.136;2022-12-17T11:45:07;101874.89;;;-3.44;89.96
25869;BME280;13688;53.154;18.136;2022-12-17T11:51:04;101875.73;;;-3.32;90.33
25869;BME280;13688;53.154;18.136;2022-12-17T11:57:05;101873.98;;;-3.25;90.15
25869;BME280;13688;53.154;18.136;2022-12-17T12:21:03;101869.52;;;-2.99;89.19
25869;BME280;13688;53.154;18.136;2022-12-17T12:26:51;101871.25;;;-2.96;88.55
25869;BME280;13688;53.154;18.136;2022-12-17T12:33:12;101879.91;;;-2.68;88.17
25869;BME280;13688;53.154;18.136;2022-12-17T12:38:57;101880.45;;;-2.14;87.51
25869;BME280;13688;53.154;18.136;2022-12-17T12:44:43;101886.59;;;-2.14;85.63
25869;BME280;13688;53.154;18.136;2022-12-17T12:50:45;101888.50;;;-2.36;84.15
25869;BME280;13688;53.154;18.136;2022-12-17T12:56:34;101889.41;;;-2.38;83.64
25869;BME280;13688;53.154;18.136;2022-12-17T13:08:21;101903.43;;;-0.50;80.92
25869;BME280;13688;53.154;18.136;2022-12-17T13:13:46;101908.99;;;-1.56;78.43
25869;BME280;13688;53.154;18.136;2022-12-17T13:25:17;101911.06;;;-1.95;79.54
25869;BME280;13688;53.154;18.136;2022-12-17T13:30:40;101918.25;;;-2.17;79.96
25869;BME280;13688;53.154;18.136;2022-12-17T13:36:13;101921.91;;;-2.44;80.44
25869;BME280;13688;53.154;18.136;2022-12-17T13:41:55;101929.88;;;-2.62;81.15
25869;BME280;13688;53.154;18.136;2022-12-17T13:47:26;101936.99;;;-2.84;81.82
25869;BME280;13688;53.154;18.136;2022-12-17T13:52:50;101958.97;;;-2.97;82.85
25869;BME280;13688;53.154;18.136;2022-12-17T13:58:21;101960.73;;;-3.04;83.92
25869;BME280;13688;53.154;18.136;2022-12-17T14:03:49;101973.91;;;-3.16;84.72
25869;BME280;13688;53.154;18.136;2022-12-17T14:09:21;101963.38;;;-3.30;85.69
25869;BME280;13688;53.154;18.136;2022-12-17T14:15:04;101975.67;;;-3.41;86.64
25869;BME280;13688;53.154;18.136;2022-12-17T14:20:31;101976.53;;;-3.57;87.55
25869;BME280;13688;53.154;18.136;2022-12-17T14:25:55;101990.56;;;-3.75;88.38
25869;BME280;13688;53.154;18.136;2022-12-17T14:31:26;101994.88;;;-3.98;89.31
25869;BME280;13688;53.154;18.136;2022-12-17T14:36:57;101998.33;;;-4.21;90.33
25869;BME280;13688;53.154;18.136;2022-12-17T14:42:21;102013.17;;;-4.29;91.85
25869;BME280;13688;53.154;18.136;2022-12-17T14:47:58;102014.01;;;-4.41;93.22
25869;BME280;13688;53.154;18.136;2022-12-17T14:53:30;102012.22;;;-4.45;94.89
25869;BME280;13688;53.154;18.136;2022-12-17T14:58:56;102011.42;;;-4.30;96.74
25869;BME280;13688;53.154;18.136;2022-12-17T15:04:19;102018.38;;;-4.38;98.18
25869;BME280;13688;53.154;18.136;2022-12-17T15:09:43;102023.67;;;-4.34;99.71
25869;BME280;13688;53.154;18.136;2022-12-17T15:15:07;102034.22;;;-4.23;100.00
25869;BME280;13688;53.154;18.136;2022-12-17T15:20:30;102035.09;;;-4.21;100.00
25869;BME280;13688;53.154;18.136;2022-12-17T15:25:53;102037.72;;;-4.21;100.00
25869;BME280;13688;53.154;18.136;2022-12-17T15:31:17;102047.27;;;-4.35;100.00
25869;BME280;13688;53.154;18.136;2022-12-17T15:36:41;102043.72;;;-4.46;100.00
25869;BME280;13688;53.154;18.136;2022-12-17T15:42:03;102045.45;;;-4.53;100.00
25869;BME280;13688;53.154;18.136;2022-12-17T15:47:37;102047.26;;;-4.43;100.00
25869;BME280;13688;53.154;18.136;2022-12-17T15:52:59;102040.21;;;-4.50;100.00
25869;BME280;13688;53.154;18.136;2022-12-17T15:58:22;102048.95;;;-4.52;100.00
25869;BME280;13688;53.154;18.136;2022-12-17T16:03:46;102055.91;;;-4.61;100.00
25869;BME280;13688;53.154;18.136;2022-12-17T16:09:09;102067.23;;;-4.65;100.00
25869;BME280;13688;53.154;18.136;2022-12-17T16:14:35;102074.27;;;-4.61;100.00
25869;BME280;13688;53.154;18.136;2022-12-17T16:19:57;102082.09;;;-4.68;100.00
25869;BME280;13688;53.154;18.136;2022-12-17T16:25:21;102090.02;;;-4.62;100.00
25869;BME280;13688;53.154;18.136;2022-12-17T16:30:43;102092.65;;;-4.59;100.00
25869;BME280;13688;53.154;18.136;2022-12-17T16:36:20;102097.03;;;-4.56;100.00
25869;BME280;13688;53.154;18.136;2022-12-17T16:41:43;102097.02;;;-4.59;100.00
25869;BME280;13688;53.154;18.136;2022-12-17T16:47:05;102094.41;;;-4.58;100.00
25869;BME280;13688;53.154;18.136;2022-12-17T16:52:28;102104.89;;;-4.59;100.00
25869;BME280;13688;53.154;18.136;2022-12-17T16:57:50;102109.28;;;-4.57;100.00
25869;BME280;13688;53.154;18.136;2022-12-17T17:03:12;102108.45;;;-4.53;100.00
25869;BME280;13688;53.154;18.136;2022-12-17T17:08:35;102113.72;;;-4.47;100.00
25869;BME280;13688;53.154;18.136;2022-12-17T17:13:59;102116.38;;;-4.44;100.00
25869;BME280;13688;53.154;18.136;2022-12-17T17:19:22;102123.39;;;-4.41;100.00
25869;BME280;13688;53.154;18.136;2022-12-17T17:24:44;102138.27;;;-4.43;100.00
25869;BME280;13688;53.154;18.136;2022-12-17T17:30:07;102146.15;;;-4.39;100.00
25869;BME280;13688;53.154;18.136;2022-12-17T17:35:30;102161.90;;;-4.40;100.00
25869;BME280;13688;53.154;18.136;2022-12-17T17:40:56;102157.52;;;-4.40;100.00
25869;BME280;13688;53.154;18.136;2022-12-17T17:46:17;102169.83;;;-4.34;100.00
25869;BME280;13688;53.154;18.136;2022-12-17T17:51:42;102156.70;;;-4.34;100.00
25869;BME280;13688;53.154;18.136;2022-12-17T17:57:07;102171.53;;;-4.36;100.00
25869;BME280;13688;53.154;18.136;2022-12-17T18:02:29;102173.28;;;-4.38;100.00
25869;BME280;13688;53.154;18.136;2022-12-17T18:07:53;102189.05;;;-4.35;100.00
25869;BME280;13688;53.154;18.136;2022-12-17T18:13:15;102196.92;;;-4.35;100.00
25869;BME280;13688;53.154;18.136;2022-12-17T18:18:57;102206.55;;;-4.36;100.00
25869;BME280;13688;53.154;18.136;2022-12-17T18:24:23;102211.84;;;-4.34;100.00
25869;BME280;13688;53.154;18.136;2022-12-17T18:29:45;102214.42;;;-4.37;100.00
25869;BME280;13688;53.154;18.136;2022-12-17T18:35:07;102213.54;;;-4.38;100.00
25869;BME280;13688;53.154;18.136;2022-12-17T18:40:30;102209.17;;;-4.36;100.00
25869;BME280;13688;53.154;18.136;2022-12-17T18:45:52;102227.55;;;-4.36;100.00
25869;BME280;13688;53.154;18.136;2022-12-17T18:51:16;102229.29;;;-4.39;100.00
25869;BME280;13688;53.154;18.136;2022-12-17T18:56:39;102238.03;;;-4.42;100.00
25869;BME280;13688;53.154;18.136;2022-12-17T19:02:08;102249.34;;;-4.47;100.00
25869;BME280;13688;53.154;18.136;2022-12-17T19:07:32;102261.56;;;-4.52;100.00
25869;BME280;13688;53.154;18.136;2022-12-17T19:12:56;102257.19;;;-4.53;100.00
25869;BME280;13688;53.154;18.136;2022-12-17T19:18:20;102260.64;;;-4.56;100.00
25869;BME280;13688;53.154;18.136;2022-12-17T19:23:44;102257.13;;;-4.56;100.00
25869;BME280;13688;53.154;18.136;2022-12-17T19:29:09;102263.19;;;-4.64;99.65
25869;BME280;13688;53.154;18.136;2022-12-17T19:34:33;102261.41;;;-4.68;99.17
25869;BME280;13688;53.154;18.136;2022-12-17T19:39:55;102263.15;;;-4.70;98.68
25869;BME280;13688;53.154;18.136;2022-12-17T19:45:18;102265.77;;;-4.70;98.25
25869;BME280;13688;53.154;18.136;2022-12-17T19:50:41;102271.02;;;-4.70;97.86
25869;BME280;13688;53.154;18.136;2022-12-17T19:56:18;102264.02;;;-4.71;97.44
25869;BME280;13688;53.154;18.136;2022-12-17T20:01:46;102276.27;;;-4.70;97.20
25869;BME280;13688;53.154;18.136;2022-12-17T20:07:10;102290.28;;;-4.68;96.94
25869;BME280;13688;53.154;18.136;2022-12-17T20:12:33;102304.28;;;-4.66;96.84
25869;BME280;13688;53.154;18.136;2022-12-17T20:17:55;102310.41;;;-4.65;96.72
25869;BME280;13688;53.154;18.136;2022-12-17T20:23:17;102309.53;;;-4.66;96.66
25869;BME280;13688;53.154;18.136;2022-12-17T20:28:40;102326.15;;;-4.67;96.65
25869;BME280;13688;53.154;18.136;2022-12-17T20:34:05;102334.02;;;-4.67;96.80
25869;BME280;13688;53.154;18.136;2022-12-17T20:39:31;102343.64;;;-4.67;96.92
25869;BME280;13688;53.154;18.136;2022-12-17T20:44:54;102354.14;;;-4.67;96.94
25869;BME280;13688;53.154;18.136;2022-12-17T20:50:16;102355.88;;;-4.68;96.91
25869;BME280;13688;53.154;18.136;2022-12-17T20:55:39;102357.62;;;-4.68;96.79
25869;BME280;13688;53.154;18.136;2022-12-17T21:01:16;102349.76;;;-4.68;96.65
25869;BME280;13688;53.154;18.136;2022-12-17T21:06:43;102353.25;;;-4.69;96.44
25869;BME280;13688;53.154;18.136;2022-12-17T21:12:05;102364.63;;;-4.69;96.20
25869;BME280;13688;53.154;18.136;2022-12-17T21:17:28;102361.05;;;-4.74;96.04
25869;BME280;13688;53.154;18.136;2022-12-17T21:22:50;102364.60;;;-4.72;96.06
25869;BME280;13688;53.154;18.136;2022-12-17T21:28:13;102368.92;;;-4.74;95.97
25869;BME280;13688;53.154;18.136;2022-12-17T21:33:36;102380.28;;;-4.75;95.96
25869;BME280;13688;53.154;18.136;2022-12-17T21:39:21;102372.51;;;-4.67;96.44
25869;BME280;13688;53.154;18.136;2022-12-17T21:44:41;102382.88;;;-4.78;96.11
25869;BME280;13688;53.154;18.136;2022-12-17T21:50:03;102388.91;;;-4.85;96.22
25869;BME280;13688;53.154;18.136;2022-12-17T21:55:26;102394.10;;;-4.91;96.41
25869;BME280;13688;53.154;18.136;2022-12-17T22:00:48;102389.63;;;-4.98;96.69
25869;BME280;13688;53.154;18.136;2022-12-17T22:06:16;102382.53;;;-5.05;96.95
25869;BME280;13688;53.154;18.136;2022-12-17T22:11:43;102390.28;;;-5.14;97.19
25869;BME280;13688;53.154;18.136;2022-12-17T22:17:17;102402.39;;;-5.24;96.75
25869;BME280;13688;53.154;18.136;2022-12-17T22:22:39;102400.45;;;-5.39;97.98
25869;BME280;13688;53.154;18.136;2022-12-17T22:28:02;102413.48;;;-5.42;98.58
25869;BME280;13688;53.154;18.136;2022-12-17T22:33:25;102415.22;;;-5.42;99.15
25869;BME280;13688;53.154;18.136;2022-12-17T22:38:49;102426.56;;;-5.43;99.62
25869;BME280;13688;53.154;18.136;2022-12-17T22:44:15;102426.52;;;-5.48;99.96
25869;BME280;13688;53.154;18.136;2022-12-17T22:49:40;102422.92;;;-5.53;100.00
25869;BME280;13688;53.154;18.136;2022-12-17T22:55:03;102434.16;;;-5.60;100.00
25869;BME280;13688;53.154;18.136;2022-12-17T23:00:29;102441.88;;;-5.69;100.00
25869;BME280;13688;53.154;18.136;2022-12-17T23:06:03;102449.65;;;-5.76;100.00
25869;BME280;13688;53.154;18.136;2022-12-17T23:11:26;102448.66;;;-5.82;100.00
25869;BME280;13688;53.154;18.136;2022-12-17T23:16:49;102457.34;;;-5.85;100.00
25869;BME280;13688;53.154;18.136;2022-12-17T23:22:11;102463.42;;;-5.87;100.00
25869;BME280;13688;53.154;18.136;2022-12-17T23:27:33;102466.05;;;-5.87;100.00
25869;BME280;13688;53.154;18.136;2022-12-17T23:32:57;102468.69;;;-5.86;100.00
25869;BME280;13688;53.154;18.136;2022-12-17T23:38:19;102472.19;;;-5.85;100.00
25869;BME280;13688;53.154;18.136;2022-12-17T23:43:42;102477.37;;;-5.88;100.00
25869;BME280;13688;53.154;18.136;2022-12-17T23:49:07;102495.65;;;-5.93;100.00
25869;BME280;13688;53.154;18.136;2022-12-17T23:54:30;102496.45;;;-5.97;100.00
25869;BME280;13688;53.154;18.136;2022-12-17T23:59:52;102485.98;;;-5.97;100.00
